sensor_id;sensor_type;location;lat;lon;timestamp;P1;durP1;ratioP1;P2;durP2;ratioP2
22111;SDS011;11222;50.872;4.312;2022-11-02T00:01:40;7.55;;;2.75;;
22111;SDS011;11222;50.872;4.312;2022-11-02T00:04:07;8.63;;;2.70;;
22111;SDS011;11222;50.872;4.312;2022-11-02T00:06:33;4.75;;;2.55;;
22111;SDS011;11222;50.872;4.312;2022-11-02T00:08:58;10.35;;;2.30;;
22111;SDS011;11222;50.872;4.312;2022-11-02T00:11:24;7.47;;;3.20;;
22111;SDS011;11222;50.872;4.312;2022-11-02T00:13:50;9.45;;;2.95;;
22111;SDS011;11222;50.872;4.312;2022-11-02T00:16:16;7.68;;;2.78;;
22111;SDS011;11222;50.872;4.312;2022-11-02T00:18:43;9.73;;;2.58;;
22111;SDS011;11222;50.872;4.312;2022-11-02T00:21:12;8.13;;;2.90;;
22111;SDS011;11222;50.872;4.312;2022-11-02T00:23:41;9.98;;;2.88;;
22111;SDS011;11222;50.872;4.312;2022-11-02T00:26:07;7.28;;;2.42;;
22111;SDS011;11222;50.872;4.312;2022-11-02T00:28:33;9.57;;;2.78;;
22111;SDS011;11222;50.872;4.312;2022-11-02T00:30:59;5.68;;;2.65;;
22111;SDS011;11222;50.872;4.312;2022-11-02T00:33:25;6.07;;;2.67;;
22111;SDS011;11222;50.872;4.312;2022-11-02T00:35:51;7.13;;;2.50;;
22111;SDS011;11222;50.872;4.312;2022-11-02T00:38:18;7.55;;;2.60;;
22111;SDS011;11222;50.872;4.312;2022-11-02T00:40:43;6.40;;;2.42;;
22111;SDS011;11222;50.872;4.312;2022-11-02T00:43:09;8.23;;;2.78;;
22111;SDS011;11222;50.872;4.312;2022-11-02T00:45:35;9.40;;;2.65;;
22111;SDS011;11222;50.872;4.312;2022-11-02T00:48:00;5.60;;;2.88;;
22111;SDS011;11222;50.872;4.312;2022-11-02T00:50:26;10.43;;;2.95;;
22111;SDS011;11222;50.872;4.312;2022-11-02T00:52:52;10.27;;;3.03;;
22111;SDS011;11222;50.872;4.312;2022-11-02T00:55:17;9.45;;;2.95;;
22111;SDS011;11222;50.872;4.312;2022-11-02T00:57:43;8.77;;;2.30;;
22111;SDS011;11222;50.872;4.312;2022-11-02T01:00:09;12.10;;;3.35;;
22111;SDS011;11222;50.872;4.312;2022-11-02T01:02:36;9.82;;;3.03;;
22111;SDS011;11222;50.872;4.312;2022-11-02T01:05:03;8.55;;;3.20;;
22111;SDS011;11222;50.872;4.312;2022-11-02T01:07:29;12.30;;;2.85;;
22111;SDS011;11222;50.872;4.312;2022-11-02T01:09:55;13.38;;;3.03;;
22111;SDS011;11222;50.872;4.312;2022-11-02T01:12:21;11.10;;;2.90;;
22111;SDS011;11222;50.872;4.312;2022-11-02T01:14:47;9.20;;;3.05;;
22111;SDS011;11222;50.872;4.312;2022-11-02T01:17:14;8.15;;;2.80;;
22111;SDS011;11222;50.872;4.312;2022-11-02T01:19:40;10.73;;;3.10;;
22111;SDS011;11222;50.872;4.312;2022-11-02T01:22:06;11.38;;;2.88;;
22111;SDS011;11222;50.872;4.312;2022-11-02T01:24:32;13.13;;;3.35;;
22111;SDS011;11222;50.872;4.312;2022-11-02T01:26:58;12.40;;;3.17;;
22111;SDS011;11222;50.872;4.312;2022-11-02T01:29:24;9.60;;;3.20;;
22111;SDS011;11222;50.872;4.312;2022-11-02T01:31:49;9.63;;;3.20;;
22111;SDS011;11222;50.872;4.312;2022-11-02T01:34:17;9.23;;;2.70;;
22111;SDS011;11222;50.872;4.312;2022-11-02T01:36:44;10.82;;;3.22;;
22111;SDS011;11222;50.872;4.312;2022-11-02T01:39:10;12.15;;;3.33;;
22111;SDS011;11222;50.872;4.312;2022-11-02T01:41:36;12.65;;;3.35;;
22111;SDS011;11222;50.872;4.312;2022-11-02T01:44:03;6.75;;;2.70;;
22111;SDS011;11222;50.872;4.312;2022-11-02T01:46:37;11.73;;;3.05;;
22111;SDS011;11222;50.872;4.312;2022-11-02T01:49:13;10.68;;;3.38;;
22111;SDS011;11222;50.872;4.312;2022-11-02T01:51:49;7.25;;;3.10;;
22111;SDS011;11222;50.872;4.312;2022-11-02T01:54:22;11.40;;;2.90;;
22111;SDS011;11222;50.872;4.312;2022-11-02T01:56:55;13.68;;;3.35;;
22111;SDS011;11222;50.872;4.312;2022-11-02T01:59:28;7.20;;;2.95;;
22111;SDS011;11222;50.872;4.312;2022-11-02T02:01:57;11.00;;;2.80;;
22111;SDS011;11222;50.872;4.312;2022-11-02T02:04:23;8.82;;;3.25;;
22111;SDS011;11222;50.872;4.312;2022-11-02T02:06:49;8.32;;;3.03;;
22111;SDS011;11222;50.872;4.312;2022-11-02T02:09:16;10.13;;;2.88;;
22111;SDS011;11222;50.872;4.312;2022-11-02T02:11:44;12.48;;;3.30;;
22111;SDS011;11222;50.872;4.312;2022-11-02T02:14:11;10.65;;;4.45;;
22111;SDS011;11222;50.872;4.312;2022-11-02T02:30:43;12.63;;;3.55;;
22111;SDS011;11222;50.872;4.312;2022-11-02T02:33:25;11.40;;;3.20;;
22111;SDS011;11222;50.872;4.312;2022-11-02T02:36:11;11.18;;;3.08;;
22111;SDS011;11222;50.872;4.312;2022-11-02T02:38:53;13.75;;;3.05;;
22111;SDS011;11222;50.872;4.312;2022-11-02T02:41:35;8.85;;;3.25;;
22111;SDS011;11222;50.872;4.312;2022-11-02T02:44:13;11.00;;;3.20;;
22111;SDS011;11222;50.872;4.312;2022-11-02T02:46:49;12.57;;;3.53;;
22111;SDS011;11222;50.872;4.312;2022-11-02T02:49:21;8.57;;;2.83;;
22111;SDS011;11222;50.872;4.312;2022-11-02T02:51:54;12.43;;;2.90;;
22111;SDS011;11222;50.872;4.312;2022-11-02T02:54:22;13.73;;;3.25;;
22111;SDS011;11222;50.872;4.312;2022-11-02T02:57:10;15.18;;;3.38;;
22111;SDS011;11222;50.872;4.312;2022-11-02T02:59:43;13.82;;;3.33;;
22111;SDS011;11222;50.872;4.312;2022-11-02T03:02:20;11.82;;;3.00;;
22111;SDS011;11222;50.872;4.312;2022-11-02T03:04:49;11.15;;;3.03;;
22111;SDS011;11222;50.872;4.312;2022-11-02T03:07:17;14.32;;;2.97;;
22111;SDS011;11222;50.872;4.312;2022-11-02T03:09:52;11.45;;;3.30;;
22111;SDS011;11222;50.872;4.312;2022-11-02T03:12:47;12.07;;;3.28;;
22111;SDS011;11222;50.872;4.312;2022-11-02T03:23:09;16.38;;;3.38;;
22111;SDS011;11222;50.872;4.312;2022-11-02T03:25:55;12.82;;;2.95;;
22111;SDS011;11222;50.872;4.312;2022-11-02T03:31:09;11.15;;;3.25;;
22111;SDS011;11222;50.872;4.312;2022-11-02T03:33:45;13.60;;;3.17;;
22111;SDS011;11222;50.872;4.312;2022-11-02T03:36:18;11.07;;;3.30;;
22111;SDS011;11222;50.872;4.312;2022-11-02T03:38:57;9.68;;;3.33;;
22111;SDS011;11222;50.872;4.312;2022-11-02T03:41:28;15.68;;;3.30;;
22111;SDS011;11222;50.872;4.312;2022-11-02T03:44:04;11.18;;;2.95;;
22111;SDS011;11222;50.872;4.312;2022-11-02T03:46:32;13.23;;;3.15;;
22111;SDS011;11222;50.872;4.312;2022-11-02T03:49:01;11.85;;;2.95;;
22111;SDS011;11222;50.872;4.312;2022-11-02T03:51:31;9.40;;;3.35;;
22111;SDS011;11222;50.872;4.312;2022-11-02T03:54:05;14.38;;;4.00;;
22111;SDS011;11222;50.872;4.312;2022-11-02T03:56:54;13.43;;;3.03;;
22111;SDS011;11222;50.872;4.312;2022-11-02T03:59:23;11.68;;;3.58;;
22111;SDS011;11222;50.872;4.312;2022-11-02T04:01:49;9.93;;;2.88;;
22111;SDS011;11222;50.872;4.312;2022-11-02T04:04:16;15.25;;;3.40;;
22111;SDS011;11222;50.872;4.312;2022-11-02T04:06:42;13.00;;;3.47;;
22111;SDS011;11222;50.872;4.312;2022-11-02T04:09:09;11.63;;;3.03;;
22111;SDS011;11222;50.872;4.312;2022-11-02T04:11:35;14.70;;;3.20;;
22111;SDS011;11222;50.872;4.312;2022-11-02T04:14:20;12.23;;;2.70;;
22111;SDS011;11222;50.872;4.312;2022-11-02T04:17:05;8.35;;;2.90;;
22111;SDS011;11222;50.872;4.312;2022-11-02T04:19:53;15.85;;;3.83;;
22111;SDS011;11222;50.872;4.312;2022-11-02T04:22:20;15.27;;;3.67;;
22111;SDS011;11222;50.872;4.312;2022-11-02T04:25:06;11.55;;;3.40;;
22111;SDS011;11222;50.872;4.312;2022-11-02T04:27:42;11.75;;;3.00;;
22111;SDS011;11222;50.872;4.312;2022-11-02T04:30:10;17.33;;;3.60;;
22111;SDS011;11222;50.872;4.312;2022-11-02T04:32:40;12.75;;;3.22;;
22111;SDS011;11222;50.872;4.312;2022-11-02T04:35:26;9.85;;;2.85;;
22111;SDS011;11222;50.872;4.312;2022-11-02T04:37:52;13.57;;;2.92;;
22111;SDS011;11222;50.872;4.312;2022-11-02T04:40:58;11.52;;;3.05;;
22111;SDS011;11222;50.872;4.312;2022-11-02T04:43:42;16.90;;;3.25;;
22111;SDS011;11222;50.872;4.312;2022-11-02T04:46:08;15.38;;;2.92;;
22111;SDS011;11222;50.872;4.312;2022-11-02T04:48:34;20.92;;;3.20;;
22111;SDS011;11222;50.872;4.312;2022-11-02T04:50:59;11.85;;;2.92;;
22111;SDS011;11222;50.872;4.312;2022-11-02T04:53:25;8.35;;;2.60;;
22111;SDS011;11222;50.872;4.312;2022-11-02T04:55:50;9.18;;;2.60;;
22111;SDS011;11222;50.872;4.312;2022-11-02T04:58:16;15.48;;;3.00;;
22111;SDS011;11222;50.872;4.312;2022-11-02T05:00:42;13.65;;;3.00;;
22111;SDS011;11222;50.872;4.312;2022-11-02T05:03:07;7.82;;;2.70;;
22111;SDS011;11222;50.872;4.312;2022-11-02T05:05:33;13.40;;;3.03;;
22111;SDS011;11222;50.872;4.312;2022-11-02T05:07:59;14.52;;;3.45;;
22111;SDS011;11222;50.872;4.312;2022-11-02T05:10:24;15.50;;;2.78;;
22111;SDS011;11222;50.872;4.312;2022-11-02T05:12:56;12.30;;;2.90;;
22111;SDS011;11222;50.872;4.312;2022-11-02T05:15:23;11.23;;;2.47;;
22111;SDS011;11222;50.872;4.312;2022-11-02T05:17:48;10.88;;;2.72;;
22111;SDS011;11222;50.872;4.312;2022-11-02T05:20:14;13.18;;;2.90;;
22111;SDS011;11222;50.872;4.312;2022-11-02T05:22:40;13.85;;;4.03;;
22111;SDS011;11222;50.872;4.312;2022-11-02T05:25:07;15.57;;;3.33;;
22111;SDS011;11222;50.872;4.312;2022-11-02T05:27:34;16.48;;;3.28;;
22111;SDS011;11222;50.872;4.312;2022-11-02T05:30:00;16.33;;;3.03;;
22111;SDS011;11222;50.872;4.312;2022-11-02T05:32:26;14.65;;;3.55;;
22111;SDS011;11222;50.872;4.312;2022-11-02T05:34:51;10.75;;;3.33;;
22111;SDS011;11222;50.872;4.312;2022-11-02T05:37:17;14.43;;;3.05;;
22111;SDS011;11222;50.872;4.312;2022-11-02T05:39:43;20.17;;;4.40;;
22111;SDS011;11222;50.872;4.312;2022-11-02T05:42:09;13.07;;;3.10;;
22111;SDS011;11222;50.872;4.312;2022-11-02T05:44:34;13.73;;;3.15;;
22111;SDS011;11222;50.872;4.312;2022-11-02T05:47:00;15.07;;;3.15;;
22111;SDS011;11222;50.872;4.312;2022-11-02T05:49:26;14.10;;;3.08;;
22111;SDS011;11222;50.872;4.312;2022-11-02T05:51:52;9.43;;;3.03;;
22111;SDS011;11222;50.872;4.312;2022-11-02T05:54:17;12.50;;;3.80;;
22111;SDS011;11222;50.872;4.312;2022-11-02T05:56:43;18.00;;;3.92;;
22111;SDS011;11222;50.872;4.312;2022-11-02T05:59:09;13.70;;;3.25;;
22111;SDS011;11222;50.872;4.312;2022-11-02T06:01:34;15.18;;;2.92;;
22111;SDS011;11222;50.872;4.312;2022-11-02T06:04:00;16.45;;;3.63;;
22111;SDS011;11222;50.872;4.312;2022-11-02T06:06:25;14.77;;;3.33;;
22111;SDS011;11222;50.872;4.312;2022-11-02T06:08:51;13.10;;;3.40;;
22111;SDS011;11222;50.872;4.312;2022-11-02T06:11:17;14.07;;;3.13;;
22111;SDS011;11222;50.872;4.312;2022-11-02T06:13:47;17.08;;;3.30;;
22111;SDS011;11222;50.872;4.312;2022-11-02T06:16:14;14.35;;;3.72;;
22111;SDS011;11222;50.872;4.312;2022-11-02T06:18:41;23.25;;;4.45;;
22111;SDS011;11222;50.872;4.312;2022-11-02T06:21:07;19.67;;;3.35;;
22111;SDS011;11222;50.872;4.312;2022-11-02T06:23:34;18.98;;;4.10;;
22111;SDS011;11222;50.872;4.312;2022-11-02T06:26:00;17.15;;;3.50;;
22111;SDS011;11222;50.872;4.312;2022-11-02T06:28:26;19.55;;;3.63;;
22111;SDS011;11222;50.872;4.312;2022-11-02T06:30:53;17.23;;;3.33;;
22111;SDS011;11222;50.872;4.312;2022-11-02T06:33:18;17.15;;;4.53;;
22111;SDS011;11222;50.872;4.312;2022-11-02T06:35:45;21.88;;;3.95;;
22111;SDS011;11222;50.872;4.312;2022-11-02T06:38:12;16.38;;;3.70;;
22111;SDS011;11222;50.872;4.312;2022-11-02T06:40:37;16.92;;;3.42;;
22111;SDS011;11222;50.872;4.312;2022-11-02T06:43:03;17.50;;;3.50;;
22111;SDS011;11222;50.872;4.312;2022-11-02T06:45:29;16.27;;;3.17;;
22111;SDS011;11222;50.872;4.312;2022-11-02T06:47:55;16.92;;;3.65;;
22111;SDS011;11222;50.872;4.312;2022-11-02T06:50:20;14.95;;;3.10;;
22111;SDS011;11222;50.872;4.312;2022-11-02T06:52:48;16.02;;;3.92;;
22111;SDS011;11222;50.872;4.312;2022-11-02T06:55:14;16.83;;;3.10;;
22111;SDS011;11222;50.872;4.312;2022-11-02T06:57:40;17.45;;;4.10;;
22111;SDS011;11222;50.872;4.312;2022-11-02T07:00:08;15.93;;;3.50;;
22111;SDS011;11222;50.872;4.312;2022-11-02T07:02:40;14.30;;;3.70;;
22111;SDS011;11222;50.872;4.312;2022-11-02T07:05:06;17.13;;;3.75;;
22111;SDS011;11222;50.872;4.312;2022-11-02T07:07:32;20.73;;;4.05;;
22111;SDS011;11222;50.872;4.312;2022-11-02T07:09:57;20.73;;;4.07;;
22111;SDS011;11222;50.872;4.312;2022-11-02T07:12:23;17.13;;;4.20;;
22111;SDS011;11222;50.872;4.312;2022-11-02T07:14:49;22.75;;;4.53;;
22111;SDS011;11222;50.872;4.312;2022-11-02T07:17:15;18.83;;;4.10;;
22111;SDS011;11222;50.872;4.312;2022-11-02T07:19:40;14.73;;;3.55;;
22111;SDS011;11222;50.872;4.312;2022-11-02T07:22:06;23.75;;;5.10;;
22111;SDS011;11222;50.872;4.312;2022-11-02T07:24:31;17.92;;;3.75;;
22111;SDS011;11222;50.872;4.312;2022-11-02T07:26:57;17.88;;;4.00;;
22111;SDS011;11222;50.872;4.312;2022-11-02T07:29:23;22.30;;;4.63;;
22111;SDS011;11222;50.872;4.312;2022-11-02T07:31:48;15.18;;;3.08;;
22111;SDS011;11222;50.872;4.312;2022-11-02T07:34:14;15.65;;;3.35;;
22111;SDS011;11222;50.872;4.312;2022-11-02T07:36:40;23.10;;;5.55;;
22111;SDS011;11222;50.872;4.312;2022-11-02T07:39:05;19.38;;;3.92;;
22111;SDS011;11222;50.872;4.312;2022-11-02T07:41:32;17.00;;;3.72;;
22111;SDS011;11222;50.872;4.312;2022-11-02T07:43:58;18.27;;;3.83;;
22111;SDS011;11222;50.872;4.312;2022-11-02T07:46:24;18.77;;;3.40;;
22111;SDS011;11222;50.872;4.312;2022-11-02T07:48:50;17.58;;;3.95;;
22111;SDS011;11222;50.872;4.312;2022-11-02T07:51:15;18.15;;;3.50;;
22111;SDS011;11222;50.872;4.312;2022-11-02T07:53:41;19.35;;;3.50;;
22111;SDS011;11222;50.872;4.312;2022-11-02T07:56:07;17.98;;;4.00;;
22111;SDS011;11222;50.872;4.312;2022-11-02T07:58:33;14.32;;;4.20;;
22111;SDS011;11222;50.872;4.312;2022-11-02T08:00:59;21.20;;;4.38;;
22111;SDS011;11222;50.872;4.312;2022-11-02T08:03:25;16.83;;;3.70;;
22111;SDS011;11222;50.872;4.312;2022-11-02T08:05:52;18.13;;;3.33;;
22111;SDS011;11222;50.872;4.312;2022-11-02T08:08:24;20.13;;;4.03;;
22111;SDS011;11222;50.872;4.312;2022-11-02T08:10:51;17.73;;;3.83;;
22111;SDS011;11222;50.872;4.312;2022-11-02T08:13:20;11.27;;;3.25;;
22111;SDS011;11222;50.872;4.312;2022-11-02T08:15:53;21.02;;;3.67;;
22111;SDS011;11222;50.872;4.312;2022-11-02T08:18:20;21.88;;;3.95;;
22111;SDS011;11222;50.872;4.312;2022-11-02T08:20:53;17.90;;;3.80;;
22111;SDS011;11222;50.872;4.312;2022-11-02T08:23:20;16.13;;;3.53;;
22111;SDS011;11222;50.872;4.312;2022-11-02T08:25:46;18.77;;;4.43;;
22111;SDS011;11222;50.872;4.312;2022-11-02T08:28:15;18.20;;;4.15;;
22111;SDS011;11222;50.872;4.312;2022-11-02T08:30:48;17.65;;;4.57;;
22111;SDS011;11222;50.872;4.312;2022-11-02T08:33:14;19.63;;;4.68;;
22111;SDS011;11222;50.872;4.312;2022-11-02T08:35:42;21.23;;;5.80;;
22111;SDS011;11222;50.872;4.312;2022-11-02T08:38:09;24.90;;;3.97;;
22111;SDS011;11222;50.872;4.312;2022-11-02T08:40:36;23.00;;;4.43;;
22111;SDS011;11222;50.872;4.312;2022-11-02T08:43:04;26.60;;;5.20;;
22111;SDS011;11222;50.872;4.312;2022-11-02T08:45:31;14.98;;;4.20;;
22111;SDS011;11222;50.872;4.312;2022-11-02T08:47:57;18.23;;;4.15;;
22111;SDS011;11222;50.872;4.312;2022-11-02T08:50:23;16.80;;;3.63;;
22111;SDS011;11222;50.872;4.312;2022-11-02T08:52:50;16.67;;;4.10;;
22111;SDS011;11222;50.872;4.312;2022-11-02T08:55:15;18.30;;;4.50;;
22111;SDS011;11222;50.872;4.312;2022-11-02T09:00:14;24.33;;;4.28;;
22111;SDS011;11222;50.872;4.312;2022-11-02T09:02:41;19.80;;;4.22;;
22111;SDS011;11222;50.872;4.312;2022-11-02T09:05:08;21.50;;;4.85;;
22111;SDS011;11222;50.872;4.312;2022-11-02T09:07:34;18.83;;;4.32;;
22111;SDS011;11222;50.872;4.312;2022-11-02T09:09:59;16.02;;;3.60;;
22111;SDS011;11222;50.872;4.312;2022-11-02T09:12:25;22.40;;;4.50;;
22111;SDS011;11222;50.872;4.312;2022-11-02T09:14:51;19.52;;;4.53;;
22111;SDS011;11222;50.872;4.312;2022-11-02T09:17:16;15.40;;;3.92;;
22111;SDS011;11222;50.872;4.312;2022-11-02T09:19:42;17.58;;;3.90;;
22111;SDS011;11222;50.872;4.312;2022-11-02T09:22:08;19.30;;;3.88;;
22111;SDS011;11222;50.872;4.312;2022-11-02T09:24:33;21.42;;;4.80;;
22111;SDS011;11222;50.872;4.312;2022-11-02T09:26:59;16.42;;;4.20;;
22111;SDS011;11222;50.872;4.312;2022-11-02T09:29:25;20.48;;;3.80;;
22111;SDS011;11222;50.872;4.312;2022-11-02T09:31:51;19.55;;;4.47;;
22111;SDS011;11222;50.872;4.312;2022-11-02T09:34:16;14.82;;;3.85;;
22111;SDS011;11222;50.872;4.312;2022-11-02T09:36:42;19.67;;;3.70;;
22111;SDS011;11222;50.872;4.312;2022-11-02T09:39:08;18.90;;;4.15;;
22111;SDS011;11222;50.872;4.312;2022-11-02T09:41:41;21.48;;;4.18;;
22111;SDS011;11222;50.872;4.312;2022-11-02T09:44:27;15.27;;;3.75;;
22111;SDS011;11222;50.872;4.312;2022-11-02T09:47:02;16.05;;;4.25;;
22111;SDS011;11222;50.872;4.312;2022-11-02T09:49:28;20.23;;;4.22;;
22111;SDS011;11222;50.872;4.312;2022-11-02T09:51:55;16.83;;;4.13;;
22111;SDS011;11222;50.872;4.312;2022-11-02T09:54:39;19.00;;;3.85;;
22111;SDS011;11222;50.872;4.312;2022-11-02T09:57:10;16.50;;;4.10;;
22111;SDS011;11222;50.872;4.312;2022-11-02T09:59:40;12.95;;;3.83;;
22111;SDS011;11222;50.872;4.312;2022-11-02T10:12:55;21.38;;;4.35;;
22111;SDS011;11222;50.872;4.312;2022-11-02T10:15:34;13.27;;;3.70;;
22111;SDS011;11222;50.872;4.312;2022-11-02T10:18:04;15.13;;;3.45;;
22111;SDS011;11222;50.872;4.312;2022-11-02T10:20:39;18.35;;;4.07;;
22111;SDS011;11222;50.872;4.312;2022-11-02T10:23:11;16.42;;;4.05;;
22111;SDS011;11222;50.872;4.312;2022-11-02T10:25:46;18.65;;;4.50;;
22111;SDS011;11222;50.872;4.312;2022-11-02T10:28:14;17.05;;;4.10;;
22111;SDS011;11222;50.872;4.312;2022-11-02T10:30:48;20.88;;;4.00;;
22111;SDS011;11222;50.872;4.312;2022-11-02T10:33:16;17.40;;;4.22;;
22111;SDS011;11222;50.872;4.312;2022-11-02T10:36:00;20.75;;;3.83;;
22111;SDS011;11222;50.872;4.312;2022-11-02T10:47:50;18.58;;;3.92;;
22111;SDS011;11222;50.872;4.312;2022-11-02T10:50:24;17.13;;;4.20;;
22111;SDS011;11222;50.872;4.312;2022-11-02T10:53:00;16.20;;;4.53;;
22111;SDS011;11222;50.872;4.312;2022-11-02T10:58:14;17.73;;;4.32;;
22111;SDS011;11222;50.872;4.312;2022-11-02T11:00:43;18.80;;;4.78;;
22111;SDS011;11222;50.872;4.312;2022-11-02T11:03:09;17.17;;;4.35;;
22111;SDS011;11222;50.872;4.312;2022-11-02T11:05:38;17.90;;;4.80;;
22111;SDS011;11222;50.872;4.312;2022-11-02T11:10:52;21.58;;;4.53;;
22111;SDS011;11222;50.872;4.312;2022-11-02T11:13:22;18.55;;;4.65;;
22111;SDS011;11222;50.872;4.312;2022-11-02T11:15:49;21.20;;;4.68;;
22111;SDS011;11222;50.872;4.312;2022-11-02T11:18:18;13.75;;;4.40;;
22111;SDS011;11222;50.872;4.312;2022-11-02T11:20:47;17.52;;;4.78;;
22111;SDS011;11222;50.872;4.312;2022-11-02T11:23:19;15.57;;;3.80;;
22111;SDS011;11222;50.872;4.312;2022-11-02T11:25:57;15.13;;;3.90;;
22111;SDS011;11222;50.872;4.312;2022-11-02T11:31:26;14.32;;;4.15;;
22111;SDS011;11222;50.872;4.312;2022-11-02T11:33:53;16.80;;;3.92;;
22111;SDS011;11222;50.872;4.312;2022-11-02T11:36:29;15.48;;;4.22;;
22111;SDS011;11222;50.872;4.312;2022-11-02T11:38:59;15.07;;;4.18;;
22111;SDS011;11222;50.872;4.312;2022-11-02T11:41:32;15.38;;;4.28;;
22111;SDS011;11222;50.872;4.312;2022-11-02T11:43:59;14.80;;;3.80;;
22111;SDS011;11222;50.872;4.312;2022-11-02T11:46:45;16.23;;;4.05;;
22111;SDS011;11222;50.872;4.312;2022-11-02T11:49:19;15.00;;;3.95;;
22111;SDS011;11222;50.872;4.312;2022-11-02T11:51:49;16.60;;;3.88;;
22111;SDS011;11222;50.872;4.312;2022-11-02T11:56:50;15.77;;;3.88;;
22111;SDS011;11222;50.872;4.312;2022-11-02T11:59:18;20.55;;;4.35;;
22111;SDS011;11222;50.872;4.312;2022-11-02T12:04:41;13.70;;;3.75;;
22111;SDS011;11222;50.872;4.312;2022-11-02T12:07:26;17.23;;;3.72;;
22111;SDS011;11222;50.872;4.312;2022-11-02T12:23:26;16.88;;;3.97;;
22111;SDS011;11222;50.872;4.312;2022-11-02T12:29:24;11.40;;;3.13;;
22111;SDS011;11222;50.872;4.312;2022-11-02T12:32:12;14.05;;;3.63;;
22111;SDS011;11222;50.872;4.312;2022-11-02T12:37:44;12.57;;;3.25;;
22111;SDS011;11222;50.872;4.312;2022-11-02T12:51:29;8.77;;;2.78;;
22111;SDS011;11222;50.872;4.312;2022-11-02T12:54:22;10.05;;;2.92;;
22111;SDS011;11222;50.872;4.312;2022-11-02T12:56:54;16.00;;;3.33;;
22111;SDS011;11222;50.872;4.312;2022-11-02T12:59:27;14.07;;;3.03;;
22111;SDS011;11222;50.872;4.312;2022-11-02T13:01:56;11.18;;;3.30;;
22111;SDS011;11222;50.872;4.312;2022-11-02T13:04:35;9.88;;;3.20;;
22111;SDS011;11222;50.872;4.312;2022-11-02T13:07:30;12.98;;;3.80;;
22111;SDS011;11222;50.872;4.312;2022-11-02T13:10:14;15.25;;;3.15;;
22111;SDS011;11222;50.872;4.312;2022-11-02T13:12:44;9.10;;;2.80;;
22111;SDS011;11222;50.872;4.312;2022-11-02T13:15:15;14.05;;;3.80;;
22111;SDS011;11222;50.872;4.312;2022-11-02T13:20:17;13.02;;;2.97;;
22111;SDS011;11222;50.872;4.312;2022-11-02T13:22:50;14.40;;;3.35;;
22111;SDS011;11222;50.872;4.312;2022-11-02T13:25:43;13.57;;;3.70;;
22111;SDS011;11222;50.872;4.312;2022-11-02T13:28:28;15.68;;;3.80;;
22111;SDS011;11222;50.872;4.312;2022-11-02T13:33:43;10.25;;;3.50;;
22111;SDS011;11222;50.872;4.312;2022-11-02T13:36:12;14.45;;;3.47;;
22111;SDS011;11222;50.872;4.312;2022-11-02T13:38:40;15.15;;;3.40;;
22111;SDS011;11222;50.872;4.312;2022-11-02T13:44:10;15.77;;;4.28;;
22111;SDS011;11222;50.872;4.312;2022-11-02T13:52:13;10.00;;;3.15;;
22111;SDS011;11222;50.872;4.312;2022-11-02T13:57:30;14.75;;;4.13;;
22111;SDS011;11222;50.872;4.312;2022-11-02T13:59:59;11.05;;;3.33;;
22111;SDS011;11222;50.872;4.312;2022-11-02T14:02:29;14.32;;;3.17;;
22111;SDS011;11222;50.872;4.312;2022-11-02T14:05:00;12.90;;;3.22;;
22111;SDS011;11222;50.872;4.312;2022-11-02T14:07:27;13.82;;;3.35;;
22111;SDS011;11222;50.872;4.312;2022-11-02T14:10:12;11.70;;;3.00;;
22111;SDS011;11222;50.872;4.312;2022-11-02T14:12:44;12.95;;;3.28;;
22111;SDS011;11222;50.872;4.312;2022-11-02T14:18:39;12.55;;;3.05;;
22111;SDS011;11222;50.872;4.312;2022-11-02T14:20:35;16.17;;;3.47;;
22111;SDS011;11222;50.872;4.312;2022-11-02T14:39:15;9.38;;;2.88;;
22111;SDS011;11222;50.872;4.312;2022-11-02T14:42:08;10.63;;;2.95;;
22111;SDS011;11222;50.872;4.312;2022-11-02T14:47:28;10.90;;;2.42;;
22111;SDS011;11222;50.872;4.312;2022-11-02T14:50:16;11.50;;;3.20;;
22111;SDS011;11222;50.872;4.312;2022-11-02T14:52:58;6.03;;;2.30;;
22111;SDS011;11222;50.872;4.312;2022-11-02T14:55:33;11.07;;;3.00;;
22111;SDS011;11222;50.872;4.312;2022-11-02T14:58:05;11.88;;;2.45;;
22111;SDS011;11222;50.872;4.312;2022-11-02T15:03:36;11.45;;;3.20;;
22111;SDS011;11222;50.872;4.312;2022-11-02T15:06:02;11.57;;;3.08;;
22111;SDS011;11222;50.872;4.312;2022-11-02T15:08:35;11.38;;;3.00;;
22111;SDS011;11222;50.872;4.312;2022-11-02T15:16:56;14.75;;;4.55;;
22111;SDS011;11222;50.872;4.312;2022-11-02T15:27:44;10.77;;;3.15;;
22111;SDS011;11222;50.872;4.312;2022-11-02T15:30:14;15.88;;;3.10;;
22111;SDS011;11222;50.872;4.312;2022-11-02T15:32:51;12.13;;;3.63;;
22111;SDS011;11222;50.872;4.312;2022-11-02T15:35:22;11.80;;;3.65;;
22111;SDS011;11222;50.872;4.312;2022-11-02T15:37:52;9.32;;;3.35;;
22111;SDS011;11222;50.872;4.312;2022-11-02T15:40:28;11.80;;;2.70;;
22111;SDS011;11222;50.872;4.312;2022-11-02T15:46:03;9.50;;;2.88;;
22111;SDS011;11222;50.872;4.312;2022-11-02T15:54:46;7.72;;;2.92;;
22111;SDS011;11222;50.872;4.312;2022-11-02T15:57:20;11.98;;;3.38;;
22111;SDS011;11222;50.872;4.312;2022-11-02T16:00:26;10.90;;;3.45;;
22111;SDS011;11222;50.872;4.312;2022-11-02T16:03:04;13.50;;;4.70;;
22111;SDS011;11222;50.872;4.312;2022-11-02T16:05:32;15.00;;;3.58;;
22111;SDS011;11222;50.872;4.312;2022-11-02T16:08:21;13.95;;;3.25;;
22111;SDS011;11222;50.872;4.312;2022-11-02T16:10:49;12.90;;;3.30;;
22111;SDS011;11222;50.872;4.312;2022-11-02T16:13:17;12.00;;;3.28;;
22111;SDS011;11222;50.872;4.312;2022-11-02T16:15:45;8.07;;;2.97;;
22111;SDS011;11222;50.872;4.312;2022-11-02T16:18:22;12.35;;;3.42;;
22111;SDS011;11222;50.872;4.312;2022-11-02T16:21:01;15.07;;;3.40;;
22111;SDS011;11222;50.872;4.312;2022-11-02T16:23:30;18.52;;;6.20;;
22111;SDS011;11222;50.872;4.312;2022-11-02T16:26:04;12.63;;;3.10;;
22111;SDS011;11222;50.872;4.312;2022-11-02T16:28:37;14.35;;;5.50;;
22111;SDS011;11222;50.872;4.312;2022-11-02T16:33:37;9.70;;;2.92;;
22111;SDS011;11222;50.872;4.312;2022-11-02T16:36:31;12.68;;;3.55;;
22111;SDS011;11222;50.872;4.312;2022-11-02T16:39:00;10.40;;;3.10;;
22111;SDS011;11222;50.872;4.312;2022-11-02T16:41:38;14.27;;;3.30;;
22111;SDS011;11222;50.872;4.312;2022-11-02T16:44:08;12.85;;;3.42;;
22111;SDS011;11222;50.872;4.312;2022-11-02T16:46:40;13.90;;;3.17;;
22111;SDS011;11222;50.872;4.312;2022-11-02T16:49:15;13.18;;;3.30;;
22111;SDS011;11222;50.872;4.312;2022-11-02T16:51:58;11.10;;;3.38;;
22111;SDS011;11222;50.872;4.312;2022-11-02T16:54:26;13.45;;;3.72;;
22111;SDS011;11222;50.872;4.312;2022-11-02T16:56:55;17.13;;;3.85;;
22111;SDS011;11222;50.872;4.312;2022-11-02T16:59:59;13.30;;;3.58;;
22111;SDS011;11222;50.872;4.312;2022-11-02T17:05:23;13.02;;;3.60;;
22111;SDS011;11222;50.872;4.312;2022-11-02T17:08:00;15.15;;;3.85;;
22111;SDS011;11222;50.872;4.312;2022-11-02T17:10:33;12.63;;;3.45;;
22111;SDS011;11222;50.872;4.312;2022-11-02T17:13:02;14.25;;;4.97;;
22111;SDS011;11222;50.872;4.312;2022-11-02T17:15:31;14.75;;;5.32;;
22111;SDS011;11222;50.872;4.312;2022-11-02T17:20:33;17.38;;;5.28;;
22111;SDS011;11222;50.872;4.312;2022-11-02T17:23:00;13.93;;;5.60;;
22111;SDS011;11222;50.872;4.312;2022-11-02T17:25:28;12.82;;;4.30;;
22111;SDS011;11222;50.872;4.312;2022-11-02T17:27:56;16.13;;;5.85;;
22111;SDS011;11222;50.872;4.312;2022-11-02T17:32:58;13.88;;;7.65;;
22111;SDS011;11222;50.872;4.312;2022-11-02T17:35:33;16.92;;;5.97;;
22111;SDS011;11222;50.872;4.312;2022-11-02T17:38:00;16.30;;;6.07;;
22111;SDS011;11222;50.872;4.312;2022-11-02T17:40:26;12.25;;;4.40;;
22111;SDS011;11222;50.872;4.312;2022-11-02T17:42:52;8.48;;;3.80;;